Time;durP1;ratioP1;P1;durP2;ratioP2;P2;SDS_P1;SDS_P2;PMS_P1;PMS_P2;Temp;Humidity;BMP_temperature;BMP_pressure;BME280_temperature;BME280_humidity;BME280_pressure;Samples;Min_cycle;Max_cycle;Signal;HPM_P1;HPM_P2
2022/12/08 00:00:35;;;;;;;126.25;46.92;;;;;;;3.61;100.00;100813.44;4975398;28;20030;-81
2022/12/08 00:03:00;;;;;;;114.53;43.30;;;;;;;3.55;100.00;100799.31;4980525;28;20030;-81
2022/12/08 00:11:12;;;;;;;132.75;45.88;;;;;;;3.58;100.00;100800.03;5003428;28;20042;-81
2022/12/08 00:13:37;;;;;;;134.75;49.30;;;;;;;3.57;100.00;100797.41;4998235;28;20093;-81
2022/12/08 00:16:03;;;;;;;137.13;50.28;;;;;;;3.58;100.00;100793.75;4997279;28;20457;-81
2022/12/08 00:18:28;;;;;;;133.48;47.40;;;;;;;3.57;100.00;100789.28;4996956;28;20049;-81
2022/12/08 00:20:58;;;;;;;137.95;47.47;;;;;;;3.53;100.00;100780.47;4965928;28;20073;-81
2022/12/08 00:23:23;;;;;;;146.73;48.28;;;;;;;3.62;100.00;100789.94;4997304;28;20034;-81
2022/12/08 00:25:49;;;;;;;143.52;47.92;;;;;;;3.63;100.00;100772.75;4995930;28;20110;-81
2022/12/08 00:28:14;;;;;;;161.60;51.22;;;;;;;3.62;100.00;100779.09;4998428;28;20041;-81
2022/12/08 00:30:41;;;;;;;143.93;47.55;;;;;;;3.45;100.00;100759.19;4995062;28;20031;-80
2022/12/08 00:33:10;;;;;;;135.35;47.15;;;;;;;3.53;100.00;100772.34;4952944;28;20037;-81
2022/12/08 00:35:35;;;;;;;147.32;47.60;;;;;;;3.56;100.00;100768.59;4986423;28;20034;-81
2022/12/08 00:38:01;;;;;;;135.65;47.08;;;;;;;3.59;100.00;100763.00;4996125;28;20039;-80
2022/12/08 00:40:27;;;;;;;141.05;46.42;;;;;;;3.50;100.00;100767.94;4994556;28;20060;-81
2022/12/08 00:42:52;;;;;;;140.57;47.20;;;;;;;3.47;100.00;100748.28;4986514;28;20038;-81
2022/12/08 00:45:17;;;;;;;149.98;46.50;;;;;;;3.55;100.00;100765.00;4977812;28;20098;-81
2022/12/08 00:47:43;;;;;;;149.93;48.10;;;;;;;3.49;100.00;100763.50;4980636;28;20031;-81
2022/12/08 00:50:09;;;;;;;143.13;50.15;;;;;;;3.43;100.00;100746.72;4996173;28;20093;-81
2022/12/08 00:52:35;;;;;;;137.05;46.58;;;;;;;3.62;100.00;100763.75;4996366;28;20027;-81
2022/12/08 00:55:00;;;;;;;143.60;47.83;;;;;;;3.62;100.00;100760.16;4995227;28;20129;-81
2022/12/08 00:57:25;;;;;;;149.02;46.67;;;;;;;3.63;100.00;100764.63;4979149;28;20065;-81
2022/12/08 00:59:51;;;;;;;156.82;47.75;;;;;;;3.66;100.00;100757.22;4989440;28;20043;-81
2022/12/08 01:02:16;;;;;;;164.07;48.60;;;;;;;3.57;100.00;100754.09;4996717;28;20053;-81
2022/12/08 01:04:42;;;;;;;156.20;48.10;;;;;;;3.61;100.00;100745.75;4998104;28;20493;-81
2022/12/08 01:07:07;;;;;;;159.45;49.33;;;;;;;3.64;100.00;100744.69;4996159;28;20046;-81
2022/12/08 01:09:33;;;;;;;163.20;50.83;;;;;;;3.58;100.00;100743.19;4974545;28;20036;-81
2022/12/08 01:11:58;;;;;;;175.38;46.47;;;;;;;3.55;100.00;100745.19;4941288;28;20114;-81
2022/12/08 01:14:24;;;;;;;165.68;50.83;;;;;;;3.57;100.00;100745.97;4994887;28;20038;-81
2022/12/08 01:16:49;;;;;;;153.88;48.15;;;;;;;3.64;100.00;100745.59;4997666;28;20050;-81
2022/12/08 01:19:16;;;;;;;173.52;53.17;;;;;;;3.64;100.00;100729.34;5001139;28;20033;-81
2022/12/08 01:21:42;;;;;;;163.32;52.33;;;;;;;3.69;100.00;100737.22;4993122;28;20042;-81
2022/12/08 01:24:11;;;;;;;186.73;52.08;;;;;;;3.69;100.00;100737.22;4996609;28;20058;-81
2022/12/08 01:26:36;;;;;;;169.32;50.95;;;;;;;3.60;100.00;100733.16;4982414;28;20032;-81
2022/12/08 01:29:02;;;;;;;180.02;49.88;;;;;;;3.49;100.00;100725.63;4983359;28;20042;-81
2022/12/08 01:31:27;;;;;;;168.07;51.13;;;;;;;3.52;100.00;100729.97;4967549;28;20038;-81
2022/12/08 01:33:53;;;;;;;174.43;53.15;;;;;;;3.54;100.00;100732.59;4990003;28;20089;-81
2022/12/08 01:36:21;;;;;;;180.50;54.92;;;;;;;3.48;100.00;100725.69;4966624;28;20485;-81
2022/12/08 01:38:48;;;;;;;182.10;53.63;;;;;;;3.55;100.00;100721.69;5000407;28;20071;-82
2022/12/08 01:41:24;;;;;;;180.25;53.00;;;;;;;3.49;100.00;100722.00;4982011;28;20042;-81
2022/12/08 01:44:03;;;;;;;187.68;53.15;;;;;;;3.49;100.00;100730.13;4950222;28;20344;-81
2022/12/08 01:46:31;;;;;;;178.55;53.20;;;;;;;3.44;100.00;100722.28;4993793;28;20061;-81
2022/12/08 01:49:11;;;;;;;191.95;53.47;;;;;;;3.45;100.00;100725.84;4983059;28;20034;-81
2022/12/08 01:52:29;;;;;;;185.32;56.47;;;;;;;3.54;100.00;100736.19;4992672;28;20408;-81
2022/12/08 01:55:01;;;;;;;182.68;53.10;;;;;;;3.59;100.00;100728.72;4933282;29;20050;-81
2022/12/08 01:57:31;;;;;;;186.38;51.65;;;;;;;3.50;100.00;100719.22;4984013;28;20125;-81
2022/12/08 02:00:04;;;;;;;188.55;52.22;;;;;;;3.56;100.00;100719.84;4987289;28;20030;-81
2022/12/08 02:02:37;;;;;;;205.88;57.92;;;;;;;3.66;100.00;100726.56;4998803;28;20026;-81
2022/12/08 02:05:05;;;;;;;177.10;53.80;;;;;;;3.59;100.00;100723.31;4991420;28;20030;-81
2022/12/08 02:07:30;;;;;;;184.95;52.15;;;;;;;3.54;100.00;100711.81;4982130;28;20036;-81
2022/12/08 02:09:56;;;;;;;177.45;51.38;;;;;;;3.59;100.00;100704.34;4986491;28;20038;-81
2022/12/08 02:12:22;;;;;;;187.25;53.40;;;;;;;3.61;100.00;100706.97;4999163;28;20045;-81
2022/12/08 02:14:47;;;;;;;195.55;53.47;;;;;;;3.63;100.00;100703.22;4998913;28;20102;-81
2022/12/08 02:17:33;;;;;;;185.35;51.50;;;;;;;3.66;100.00;100704.91;5000593;28;20104;-81
2022/12/08 02:20:20;;;;;;;185.30;52.55;;;;;;;3.66;100.00;100694.06;4982563;28;20077;-81
2022/12/08 02:23:10;;;;;;;189.75;53.60;;;;;;;3.71;100.00;100699.25;4982592;28;20034;-81
2022/12/08 02:26:26;;;;;;;180.15;52.15;;;;;;;3.68;100.00;100684.03;4998629;28;20094;-81
2022/12/08 02:28:58;;;;;;;185.18;52.92;;;;;;;3.76;100.00;100699.88;4959463;28;20076;-82
2022/12/08 02:31:46;;;;;;;171.75;51.17;;;;;;;3.68;100.00;100697.56;4991145;28;20081;-81
2022/12/08 02:34:33;;;;;;;184.80;53.58;;;;;;;3.75;100.00;100693.56;4971272;28;20038;-81
2022/12/08 02:37:28;;;;;;;182.40;51.53;;;;;;;3.71;100.00;100680.28;4988307;28;20038;-81
2022/12/08 02:40:01;;;;;;;166.73;50.13;;;;;;;3.69;100.00;100677.66;4998457;28;20043;-81
2022/12/08 02:42:39;;;;;;;;;;;;;;;3.63;100.00;100678.84;4998078;28;20393;-81
2022/12/08 02:45:28;;;;;;;160.60;44.72;;;;;;;3.62;100.00;100669.00;4978800;28;19921;-81
2022/12/08 02:47:54;;;;;;;171.60;50.35;;;;;;;3.68;100.00;100663.25;4999465;28;20034;-82
2022/12/08 02:50:19;;;;;;;170.27;49.65;;;;;;;3.67;100.00;100652.50;4997435;28;20045;-81
2022/12/08 02:52:46;;;;;;;171.27;48.65;;;;;;;3.68;100.00;100660.53;4998268;28;20036;-81
2022/12/08 02:55:32;;;;;;;181.95;49.80;;;;;;;3.72;100.00;100652.25;4981435;28;20045;-80
2022/12/08 02:58:40;;;;;;;163.45;46.15;;;;;;;3.69;100.00;100642.47;4992964;28;20117;-80
2022/12/08 03:01:11;;;;;;;160.40;44.78;;;;;;;3.74;100.00;100634.97;4967325;28;20121;-80
2022/12/08 03:03:39;;;;;;;148.88;41.85;;;;;;;3.70;100.00;100636.09;4975342;28;20038;-80
2022/12/08 03:06:23;;;;;;;152.75;43.78;;;;;;;3.70;100.00;100632.50;4995030;28;20034;-80
2022/12/08 03:09:12;;;;;;;155.15;45.92;;;;;;;3.65;100.00;100633.63;4961393;28;20035;-79
2022/12/08 03:12:19;;;;;;;155.35;44.72;;;;;;;3.69;100.00;100637.06;4989069;28;20038;-80
2022/12/08 03:14:52;;;;;;;155.80;43.80;;;;;;;3.66;100.00;100635.38;4983866;28;20080;-80
2022/12/08 03:17:20;;;;;;;170.43;46.33;;;;;;;3.67;100.00;100614.59;4988925;28;20038;-80
2022/12/08 03:19:48;;;;;;;161.80;45.40;;;;;;;3.63;100.00;100613.03;4996909;28;20037;-80
2022/12/08 03:22:18;;;;;;;122.18;36.85;;;;;;;3.60;100.00;100622.16;4986988;28;20022;-80
2022/12/08 03:24:45;;;;;;;138.18;41.20;;;;;;;3.61;100.00;100610.41;4997606;28;20034;-81
2022/12/08 03:27:21;;;;;;;149.35;41.22;;;;;;;3.68;100.00;100609.09;4997088;28;20041;-80
2022/12/08 03:29:49;;;;;;;131.00;38.63;;;;;;;3.70;100.00;100611.72;4998832;28;20041;-81
2022/12/08 03:32:32;;;;;;;143.45;41.80;;;;;;;3.72;100.00;100617.91;4980238;28;20029;-81
2022/12/08 03:35:01;;;;;;;123.93;36.90;;;;;;;3.72;100.00;100604.38;4973796;28;20498;-80
2022/12/08 03:37:28;;;;;;;119.65;35.53;;;;;;;3.66;100.00;100599.31;4994359;28;20037;-80
2022/12/08 03:39:53;;;;;;;125.05;35.33;;;;;;;3.75;100.00;100611.47;4995325;28;20038;-80
2022/12/08 03:42:19;;;;;;;104.00;34.13;;;;;;;3.75;100.00;100603.34;4996148;28;20438;-80
2022/12/08 03:44:44;;;;;;;116.03;34.10;;;;;;;3.72;100.00;100596.25;4997452;28;20034;-80
2022/12/08 03:47:09;;;;;;;100.10;30.65;;;;;;;3.72;100.00;100604.38;4994635;28;20034;-80
2022/12/08 03:49:35;;;;;;;113.75;33.22;;;;;;;3.69;100.00;100588.31;4954535;28;20446;-80
2022/12/08 03:52:00;;;;;;;99.50;32.15;;;;;;;3.70;100.00;100603.59;4985153;28;20090;-80
2022/12/08 03:54:26;;;;;;;109.25;33.28;;;;;;;3.77;100.00;100588.78;4994441;28;20065;-80
2022/12/08 03:56:51;;;;;;;118.38;34.97;;;;;;;3.79;100.00;100584.16;4997152;28;20072;-81
2022/12/08 03:59:20;;;;;;;110.32;31.88;;;;;;;3.63;100.00;100570.56;4980569;28;20061;-81
2022/12/08 04:01:45;;;;;;;100.35;30.63;;;;;;;3.83;100.00;100585.72;4997109;28;20046;-81
2022/12/08 04:04:11;;;;;;;102.53;30.92;;;;;;;3.81;100.00;100589.47;4963009;28;20102;-81
2022/12/08 04:06:36;;;;;;;103.53;29.73;;;;;;;3.77;100.00;100579.75;4979229;28;20049;-81
2022/12/08 04:09:01;;;;;;;115.05;33.30;;;;;;;3.91;100.00;100592.56;4995671;28;20050;-80
2022/12/08 04:11:27;;;;;;;101.30;29.95;;;;;;;3.80;100.00;100583.16;4996771;28;20129;-81
2022/12/08 04:13:52;;;;;;;111.20;32.20;;;;;;;3.90;100.00;100585.38;4994673;28;20607;-81
2022/12/08 04:16:21;;;;;;;119.97;33.03;;;;;;;3.92;100.00;100578.03;4980348;28;20037;-80
2022/12/08 04:18:47;;;;;;;119.05;35.05;;;;;;;3.93;100.00;100577.09;4994969;28;20042;-80
2022/12/08 04:21:12;;;;;;;126.63;35.22;;;;;;;3.90;100.00;100574.53;4996596;28;20565;-80
2022/12/08 04:23:38;;;;;;;136.02;36.03;;;;;;;3.86;100.00;100565.72;4992805;28;20038;-81
2022/12/08 04:26:04;;;;;;;149.95;39.60;;;;;;;3.90;100.00;100570.00;4984107;28;20404;-80
2022/12/08 04:28:30;;;;;;;147.57;39.58;;;;;;;3.88;100.00;100577.34;4996939;28;20030;-81
2022/12/08 04:30:55;;;;;;;149.57;38.90;;;;;;;3.90;100.00;100566.41;4996707;28;20030;-80
2022/12/08 04:33:21;;;;;;;157.48;39.92;;;;;;;3.88;100.00;100561.09;4961432;28;20391;-81
2022/12/08 04:35:46;;;;;;;152.73;42.15;;;;;;;3.90;100.00;100567.28;4995717;28;20508;-81
2022/12/08 04:38:12;;;;;;;179.68;43.67;;;;;;;3.72;100.00;100549.38;4995196;28;20049;-81
2022/12/08 04:40:37;;;;;;;166.05;42.97;;;;;;;3.83;100.00;100557.75;4994291;28;20030;-81
2022/12/08 04:43:03;;;;;;;181.55;45.63;;;;;;;3.80;100.00;100553.38;4990985;28;20320;-80
2022/12/08 04:45:29;;;;;;;171.35;43.35;;;;;;;3.87;100.00;100564.78;4992604;28;20397;-81
2022/12/08 04:47:54;;;;;;;192.73;47.20;;;;;;;3.85;100.00;100555.84;4986238;28;20038;-79
2022/12/08 04:50:20;;;;;;;200.95;48.22;;;;;;;3.83;100.00;100549.63;4976253;28;20038;-79
2022/12/08 04:52:45;;;;;;;204.82;50.55;;;;;;;3.89;100.00;100560.13;4968578;28;20047;-81
2022/12/08 04:55:11;;;;;;;205.05;48.30;;;;;;;3.85;100.00;100561.25;4989576;28;20072;-80
2022/12/08 04:57:36;;;;;;;213.63;51.40;;;;;;;3.90;100.00;100550.16;4993624;28;20038;-79
2022/12/08 05:00:03;;;;;;;201.73;51.00;;;;;;;3.89;100.00;100537.56;4994614;28;20141;-80
2022/12/08 05:02:28;;;;;;;195.75;50.13;;;;;;;3.92;100.00;100545.53;4994533;28;20117;-80
2022/12/08 05:04:54;;;;;;;208.65;53.20;;;;;;;3.81;100.00;100541.59;4993308;28;20065;-80
2022/12/08 05:07:19;;;;;;;221.23;52.83;;;;;;;3.80;100.00;100542.53;4994479;28;20045;-79
2022/12/08 05:09:45;;;;;;;204.02;51.42;;;;;;;3.81;100.00;100538.03;4972140;28;20050;-79
2022/12/08 05:12:10;;;;;;;182.43;48.50;;;;;;;3.83;100.00;100538.81;4974493;28;20041;-80
2022/12/08 05:14:36;;;;;;;205.27;50.17;;;;;;;3.86;100.00;100539.50;4971482;28;20038;-80
2022/12/08 05:17:01;;;;;;;184.40;48.25;;;;;;;3.84;100.00;100538.72;4991251;28;20046;-79
2022/12/08 05:19:26;;;;;;;170.40;47.83;;;;;;;3.83;100.00;100550.50;4963772;28;20453;-79
2022/12/08 05:21:52;;;;;;;168.70;43.75;;;;;;;3.75;100.00;100539.22;4986453;28;20044;-80
2022/12/08 05:24:17;;;;;;;155.00;42.78;;;;;;;3.70;100.00;100529.63;4968739;28;20046;-79
2022/12/08 05:26:43;;;;;;;177.57;44.25;;;;;;;3.76;100.00;100526.59;4989158;28;20062;-80
2022/12/08 05:29:08;;;;;;;172.85;46.03;;;;;;;3.81;100.00;100538.88;4993103;28;20121;-81
2022/12/08 05:31:34;;;;;;;170.20;44.67;;;;;;;3.77;100.00;100559.00;4959783;28;20123;-80
2022/12/08 05:33:59;;;;;;;172.25;41.97;;;;;;;3.74;100.00;100553.75;4983074;28;20126;-78
2022/12/08 05:36:25;;;;;;;174.88;42.97;;;;;;;3.91;100.00;100558.22;4955133;28;20178;-78
2022/12/08 05:38:50;;;;;;;160.95;41.90;;;;;;;3.84;100.00;100557.69;4976214;28;20062;-78
2022/12/08 05:41:18;;;;;;;162.15;39.80;;;;;;;3.80;100.00;100552.50;4969156;28;20046;-78
2022/12/08 05:43:45;;;;;;;152.60;39.35;;;;;;;3.75;100.00;100549.19;4987993;28;20396;-79
2022/12/08 05:46:10;;;;;;;128.82;35.22;;;;;;;3.79;100.00;100548.94;4993342;28;20026;-78
2022/12/08 05:48:36;;;;;;;129.38;35.20;;;;;;;3.76;100.00;100548.25;4992383;28;20100;-77
2022/12/08 05:51:02;;;;;;;147.98;36.72;;;;;;;3.77;100.00;100545.47;4996011;28;20030;-79
2022/12/08 05:53:27;;;;;;;136.82;36.55;;;;;;;3.77;100.00;100539.16;4990203;28;20104;-80
2022/12/08 05:55:53;;;;;;;101.00;29.50;;;;;;;3.76;100.00;100549.13;4986202;28;20042;-80
2022/12/08 05:58:21;;;;;;;87.65;24.13;;;;;;;3.75;100.00;100549.19;4976553;28;20041;-79
2022/12/08 06:00:47;;;;;;;63.88;20.02;;;;;;;3.63;100.00;100542.63;4993003;28;20030;-79
2022/12/08 06:03:16;;;;;;;87.63;23.65;;;;;;;3.60;100.00;100542.81;4991136;28;20544;-79
2022/12/08 06:05:42;;;;;;;69.65;19.83;;;;;;;3.62;100.00;100546.28;4979373;28;20044;-79
2022/12/08 06:08:08;;;;;;;62.95;21.35;;;;;;;3.63;100.00;100543.50;4996516;28;20122;-79
2022/12/08 06:10:37;;;;;;;73.85;22.67;;;;;;;3.68;100.00;100530.56;5004327;28;20517;-79
2022/12/08 06:13:03;;;;;;;81.57;23.30;;;;;;;3.62;100.00;100524.63;4986629;28;20039;-79
2022/12/08 06:15:28;;;;;;;101.85;28.95;;;;;;;3.63;100.00;100521.84;4960806;28;20077;-80
2022/12/08 06:17:54;;;;;;;99.50;28.85;;;;;;;3.74;100.00;100529.38;4977836;28;20064;-80
2022/12/08 06:20:19;;;;;;;105.07;30.00;;;;;;;3.60;100.00;100524.72;4995358;28;20034;-79
2022/12/08 06:22:44;;;;;;;125.93;36.60;;;;;;;3.63;100.00;100539.94;4977908;28;20505;-80
2022/12/08 06:25:10;;;;;;;126.38;33.97;;;;;;;3.65;100.00;100519.91;4997316;28;20485;-79
2022/12/08 06:27:35;;;;;;;130.77;37.25;;;;;;;3.55;100.00;100529.50;4993673;28;20053;-80
2022/12/08 06:30:01;;;;;;;99.10;29.10;;;;;;;3.59;100.00;100528.41;4950458;28;20078;-79
2022/12/08 06:32:26;;;;;;;78.68;25.88;;;;;;;3.72;100.00;100533.13;4995244;28;20409;-80
2022/12/08 06:34:52;;;;;;;75.57;26.77;;;;;;;3.63;100.00;100538.09;4961911;28;20042;-80
2022/12/08 06:37:18;;;;;;;72.63;21.85;;;;;;;3.34;100.00;100509.91;4996155;28;20057;-79
2022/12/08 06:39:43;;;;;;;71.43;19.42;;;;;;;3.43;100.00;100536.47;4994743;28;20073;-79
2022/12/08 06:44:53;;;;;;;59.10;16.23;;;;;;;3.43;100.00;100530.22;4983774;28;20089;-80
2022/12/08 06:47:20;;;;;;;53.53;15.77;;;;;;;3.39;100.00;100529.47;4970825;28;20589;-80
2022/12/08 06:49:45;;;;;;;61.33;14.60;;;;;;;3.21;100.00;100500.72;4956942;28;20844;-80
2022/12/08 06:52:11;;;;;;;49.17;13.57;;;;;;;3.33;100.00;100531.66;4980295;28;20031;-80
2022/12/08 06:54:36;;;;;;;58.97;13.93;;;;;;;3.39;100.00;100531.31;4979529;28;20038;-80
2022/12/08 06:57:01;;;;;;;51.72;14.13;;;;;;;3.36;100.00;100543.19;4969139;28;20047;-80
2022/12/08 06:59:27;;;;;;;40.17;14.35;;;;;;;3.39;100.00;100539.44;4994811;28;20498;-80
2022/12/08 07:01:52;;;;;;;47.55;14.40;;;;;;;3.28;100.00;100530.06;4990646;28;20047;-80
2022/12/08 07:04:18;;;;;;;38.55;14.32;;;;;;;3.32;100.00;100536.19;4958393;28;20042;-80
2022/12/08 07:06:43;;;;;;;45.38;14.85;;;;;;;3.18;100.00;100523.41;4959970;28;20077;-81
2022/12/08 07:09:08;;;;;;;44.65;14.95;;;;;;;3.35;100.00;100527.91;4996771;28;20447;-80
2022/12/08 07:11:34;;;;;;;42.08;14.38;;;;;;;3.28;100.00;100537.28;4979536;28;20062;-81
2022/12/08 07:13:59;;;;;;;47.67;15.75;;;;;;;3.24;100.00;100533.03;4979608;28;20048;-81
2022/12/08 07:16:25;;;;;;;54.00;16.38;;;;;;;3.31;100.00;100542.53;4992030;28;20509;-81
2022/12/08 07:18:50;;;;;;;54.83;16.13;;;;;;;3.28;100.00;100540.00;4990553;28;20046;-79
2022/12/08 07:21:16;;;;;;;56.92;17.40;;;;;;;3.32;100.00;100538.91;4992015;28;20051;-78
2022/12/08 07:23:46;;;;;;;62.20;17.10;;;;;;;3.37;100.00;100538.66;4988833;28;20045;-79
2022/12/08 07:26:12;;;;;;;70.88;18.67;;;;;;;3.28;100.00;100531.88;4991728;28;20042;-78
2022/12/08 07:28:40;;;;;;;64.35;18.33;;;;;;;3.37;100.00;100530.53;4972785;28;20030;-80
2022/12/08 07:31:06;;;;;;;52.10;17.50;;;;;;;3.43;100.00;100541.03;4989149;28;20037;-79
2022/12/08 07:33:32;;;;;;;74.68;19.50;;;;;;;3.44;100.00;100534.63;4994478;28;20041;-79
2022/12/08 07:36:01;;;;;;;71.03;19.65;;;;;;;3.35;100.00;100529.75;4977834;28;20038;-79
2022/12/08 07:38:28;;;;;;;64.97;17.75;;;;;;;3.42;100.00;100540.13;4992893;28;20098;-80
2022/12/08 07:40:53;;;;;;;73.82;20.42;;;;;;;3.41;100.00;100532.09;4977103;28;20386;-79
2022/12/08 07:43:20;;;;;;;85.90;24.05;;;;;;;3.29;100.00;100534.50;4992252;28;20034;-79
2022/12/08 07:45:46;;;;;;;99.72;24.48;;;;;;;3.43;100.00;100528.38;4967596;28;20035;-78
2022/12/08 07:48:11;;;;;;;113.15;28.65;;;;;;;3.41;100.00;100518.56;4971309;28;20081;-79
2022/12/08 07:50:37;;;;;;;120.93;29.10;;;;;;;3.47;100.00;100529.94;4993408;28;20042;-80
2022/12/08 07:53:03;;;;;;;130.80;31.73;;;;;;;3.49;100.00;100535.25;4997534;28;20049;-80
2022/12/08 07:55:28;;;;;;;120.70;29.55;;;;;;;3.40;100.00;100520.41;4995808;28;20053;-80
2022/12/08 07:57:54;;;;;;;144.50;32.50;;;;;;;3.51;100.00;100536.06;4990748;28;20042;-80
2022/12/08 08:00:19;;;;;;;139.48;35.55;;;;;;;3.49;100.00;100530.75;4972971;28;20034;-80
2022/12/08 08:02:45;;;;;;;142.32;33.10;;;;;;;3.47;100.00;100542.59;4993643;28;20046;-79
2022/12/08 08:05:13;;;;;;;123.63;29.02;;;;;;;3.49;100.00;100544.28;4975541;28;20049;-79
2022/12/08 08:07:45;;;;;;;136.88;32.10;;;;;;;3.45;100.00;100553.50;4987297;28;20034;-79
2022/12/08 08:10:11;;;;;;;143.35;32.92;;;;;;;3.54;100.00;100532.31;4978701;28;20046;-79
2022/12/08 08:12:37;;;;;;;140.82;34.55;;;;;;;3.52;100.00;100547.75;4989998;28;20505;-79
2022/12/08 08:15:12;;;;;;;133.07;32.28;;;;;;;3.52;100.00;100534.22;4993931;28;20038;-79
2022/12/08 08:17:38;;;;;;;99.47;27.42;;;;;;;3.30;100.00;100503.81;4958970;28;20134;-79
2022/12/08 08:20:08;;;;;;;98.55;27.00;;;;;;;3.41;100.00;100523.97;5005959;28;20055;-80
2022/12/08 08:22:33;;;;;;;97.47;25.65;;;;;;;3.35;100.00;100527.91;5009204;28;20096;-79
2022/12/08 08:24:59;;;;;;;96.25;23.85;;;;;;;3.44;100.00;100531.94;4992745;28;20042;-79
2022/12/08 08:27:25;;;;;;;103.28;27.63;;;;;;;3.41;100.00;100534.81;4959005;28;20033;-79
2022/12/08 08:29:51;;;;;;;109.15;27.55;;;;;;;3.47;100.00;100538.03;5004689;28;20030;-80
2022/12/08 08:32:20;;;;;;;143.65;33.05;;;;;;;3.35;100.00;100530.63;4974694;28;20038;-80
2022/12/08 08:34:45;;;;;;;193.85;46.90;;;;;;;3.34;100.00;100530.69;4964720;28;20043;-79
2022/12/08 08:37:11;;;;;;;178.48;43.85;;;;;;;3.39;100.00;100534.03;4957850;28;20105;-80
2022/12/08 08:39:36;;;;;;;204.35;53.63;;;;;;;3.25;100.00;100507.72;4994109;28;20038;-80
2022/12/08 08:42:02;;;;;;;235.43;57.30;;;;;;;3.33;100.00;100518.13;4976949;28;20046;-81
2022/12/08 08:44:30;;;;;;;232.23;58.63;;;;;;;3.42;100.00;100528.44;4992992;28;20041;-80
2022/12/08 08:46:57;;;;;;;259.60;64.20;;;;;;;3.40;100.00;100514.13;4994234;28;20038;-82
2022/12/08 08:49:23;;;;;;;235.57;60.55;;;;;;;3.36;100.00;100521.56;4973011;28;20035;-78
2022/12/08 08:51:48;;;;;;;244.57;60.15;;;;;;;3.42;100.00;100528.44;4990351;28;20509;-78
2022/12/08 08:54:14;;;;;;;215.07;56.28;;;;;;;3.38;100.00;100527.75;4986691;28;20066;-79
2022/12/08 08:56:39;;;;;;;189.75;53.15;;;;;;;3.17;100.00;100504.56;4994842;28;20041;-79
2022/12/08 08:59:05;;;;;;;200.93;50.70;;;;;;;3.36;100.00;100526.97;4945139;28;20050;-79
2022/12/08 09:01:30;;;;;;;166.10;46.92;;;;;;;3.42;100.00;100531.16;4964107;28;20062;-80
2022/12/08 09:03:56;;;;;;;135.50;41.03;;;;;;;3.42;100.00;100532.03;4976797;28;20042;-79
2022/12/08 09:06:22;;;;;;;112.65;32.78;;;;;;;3.36;100.00;100526.97;4992997;28;20041;-80
2022/12/08 09:08:49;;;;;;;116.50;32.72;;;;;;;3.41;100.00;100526.69;4980847;28;20038;-80
2022/12/08 09:11:14;;;;;;;115.93;31.73;;;;;;;3.40;100.00;100525.81;4979960;28;20084;-80
2022/12/08 09:13:40;;;;;;;117.82;34.28;;;;;;;3.32;100.00;100528.06;4978775;28;20129;-80
2022/12/08 09:16:07;;;;;;;118.57;30.83;;;;;;;3.30;100.00;100527.28;4985836;28;20038;-81
2022/12/08 09:18:33;;;;;;;128.57;34.08;;;;;;;3.45;100.00;100528.28;4996554;28;20047;-82
2022/12/08 09:21:07;;;;;;;113.07;32.95;;;;;;;3.45;100.00;100529.16;4979666;28;20026;-81
2022/12/08 09:23:34;;;;;;;126.15;35.47;;;;;;;3.40;100.00;100535.78;4988323;28;20405;-81
2022/12/08 09:25:59;;;;;;;135.35;38.75;;;;;;;3.36;100.00;100524.25;4986177;28;20054;-81
2022/12/08 09:28:25;;;;;;;151.57;42.40;;;;;;;3.43;100.00;100531.06;4962461;28;20035;-80
2022/12/08 09:30:51;;;;;;;161.93;45.45;;;;;;;3.40;100.00;100535.78;4997537;28;20042;-81
2022/12/08 09:33:16;;;;;;;174.18;46.10;;;;;;;3.37;100.00;100535.94;4979822;28;20430;-80
2022/12/08 09:35:42;;;;;;;184.07;49.55;;;;;;;3.43;100.00;100532.91;4964737;28;20049;-80
2022/12/08 09:38:08;;;;;;;188.15;53.55;;;;;;;3.54;100.00;100543.13;4964010;28;20129;-80
2022/12/08 09:40:42;;;;;;;175.85;48.63;;;;;;;3.39;100.00;100529.47;4969172;28;20027;-79
2022/12/08 09:43:17;;;;;;;218.25;55.42;;;;;;;3.55;100.00;100531.34;4999391;28;20046;-80
2022/12/08 09:45:44;;;;;;;222.45;59.40;;;;;;;3.52;100.00;100536.94;4999259;28;20046;-79
2022/12/08 09:48:18;;;;;;;215.15;59.25;;;;;;;3.44;100.00;100522.00;4989216;28;20041;-80
2022/12/08 09:50:55;;;;;;;207.77;56.33;;;;;;;3.56;100.00;100524.97;4963567;28;20034;-80
2022/12/08 09:53:27;;;;;;;242.32;60.72;;;;;;;3.54;100.00;100524.19;4996025;28;20035;-80
2022/12/08 09:55:57;;;;;;;221.77;59.13;;;;;;;3.47;100.00;100516.41;4993634;28;20042;-79
2022/12/08 09:58:43;;;;;;;234.30;62.75;;;;;;;3.54;100.00;100521.47;4992775;28;20435;-80
2022/12/08 10:01:12;;;;;;;242.32;62.35;;;;;;;3.65;100.00;100527.16;4981874;28;20107;-79
2022/12/08 10:03:39;;;;;;;230.75;62.85;;;;;;;3.58;100.00;100523.94;4999898;28;20042;-80
2022/12/08 10:06:18;;;;;;;235.57;61.95;;;;;;;3.57;100.00;100521.31;4996204;28;20438;-79
2022/12/08 10:09:30;;;;;;;228.90;62.20;;;;;;;3.61;100.00;100523.78;4988056;28;20038;-81
2022/12/08 10:12:09;;;;;;;248.45;61.08;;;;;;;3.55;100.00;100517.81;4981359;28;20089;-79
2022/12/08 10:14:44;;;;;;;247.18;64.18;;;;;;;3.57;100.00;100508.63;4976367;28;20034;-81
2022/12/08 10:17:10;;;;;;;245.57;60.40;;;;;;;3.67;100.00;100519.84;5000385;28;20092;-80
2022/12/08 10:19:39;;;;;;;240.00;63.00;;;;;;;3.62;100.00;100508.38;4997909;28;20129;-80
2022/12/08 10:22:16;;;;;;;247.60;63.40;;;;;;;3.65;100.00;100508.22;4993967;28;20478;-79
2022/12/08 10:25:10;;;;;;;215.40;58.00;;;;;;;3.46;100.00;100511.97;4992280;28;20034;-79
2022/12/08 10:27:36;;;;;;;219.98;60.92;;;;;;;3.49;100.00;100502.78;4992054;28;20133;-80
2022/12/08 10:30:13;;;;;;;235.48;60.92;;;;;;;3.44;100.00;100494.94;4997457;28;20042;-80
2022/12/08 10:32:43;;;;;;;251.25;62.38;;;;;;;3.54;100.00;100492.56;5000175;28;20096;-80
2022/12/08 10:35:14;;;;;;;239.43;66.25;;;;;;;3.48;100.00;100506.47;4978354;28;20049;-80
2022/12/08 10:37:39;;;;;;;255.98;65.85;;;;;;;3.53;100.00;100498.97;5000523;28;20062;-80
2022/12/08 10:40:15;;;;;;;250.00;65.45;;;;;;;3.49;100.00;100495.56;4966100;28;20486;-80
2022/12/08 10:42:51;;;;;;;269.90;69.00;;;;;;;3.60;100.00;100496.78;4999985;28;20042;-80
2022/12/08 10:45:23;;;;;;;269.13;64.30;;;;;;;3.52;100.00;100488.22;4996387;28;20082;-80
2022/12/08 10:48:11;;;;;;;296.00;67.40;;;;;;;3.48;100.00;100482.97;4984912;28;20053;-81
2022/12/08 10:50:57;;;;;;;294.00;68.95;;;;;;;3.53;100.00;100488.13;4979333;28;20298;-80
2022/12/08 10:53:28;;;;;;;271.65;67.18;;;;;;;3.61;100.00;100494.00;4999845;28;20478;-80
2022/12/08 10:55:59;;;;;;;248.40;64.13;;;;;;;3.52;100.00;100494.50;4982593;28;20108;-80
2022/12/08 10:58:35;;;;;;;305.45;70.90;;;;;;;3.71;100.00;100491.63;4995124;28;20046;-79
2022/12/08 11:01:16;;;;;;;265.38;64.88;;;;;;;3.62;100.00;100486.72;4999481;28;20030;-81
2022/12/08 11:03:48;;;;;;;256.13;63.53;;;;;;;3.58;100.00;100485.19;4981714;28;20094;-80
2022/12/08 11:06:22;;;;;;;265.58;64.30;;;;;;;3.53;100.00;100473.75;4982480;28;20102;-80
2022/12/08 11:08:58;;;;;;;274.15;67.43;;;;;;;3.62;100.00;100478.63;4975819;28;20510;-80
2022/12/08 11:11:45;;;;;;;239.32;62.33;;;;;;;3.62;100.00;100473.19;4982271;28;20505;-80
2022/12/08 11:14:45;;;;;;;235.80;60.70;;;;;;;3.64;100.00;100469.47;4982501;28;20125;-80
2022/12/08 11:17:14;;;;;;;245.60;61.10;;;;;;;3.56;100.00;100463.59;4973252;28;20026;-81
2022/12/08 11:19:43;;;;;;;250.70;61.33;;;;;;;3.65;100.00;100456.78;4980349;28;20101;-81